sensor_id;sensor_type;location;lat;lon;timestamp;pressure;altitude;pressure_sealevel;temperature
19282;BMP180;9774;52.034;5.342;2023-01-10T00:00:41;100928.00;;;12.20
19282;BMP180;9774;52.034;5.342;2023-01-10T00:03:09;100940.00;;;12.10
19282;BMP180;9774;52.034;5.342;2023-01-10T00:05:38;100944.00;;;12.10
19282;BMP180;9774;52.034;5.342;2023-01-10T00:08:07;100961.00;;;12.10
19282;BMP180;9774;52.034;5.342;2023-01-10T00:10:34;100966.00;;;12.10
19282;BMP180;9774;52.034;5.342;2023-01-10T00:13:03;100972.00;;;12.10
19282;BMP180;9774;52.034;5.342;2023-01-10T00:16:07;100984.00;;;12.00
19282;BMP180;9774;52.034;5.342;2023-01-10T00:18:35;100981.00;;;12.10
19282;BMP180;9774;52.034;5.342;2023-01-10T00:21:02;100993.00;;;12.10
19282;BMP180;9774;52.034;5.342;2023-01-10T00:23:34;100981.00;;;12.10
19282;BMP180;9774;52.034;5.342;2023-01-10T00:26:02;101001.00;;;12.20
19282;BMP180;9774;52.034;5.342;2023-01-10T00:28:31;100997.00;;;12.10
19282;BMP180;9774;52.034;5.342;2023-01-10T00:31:00;100994.00;;;12.20
19282;BMP180;9774;52.034;5.342;2023-01-10T00:33:31;100990.00;;;12.20
19282;BMP180;9774;52.034;5.342;2023-01-10T00:35:59;101004.00;;;12.20
19282;BMP180;9774;52.034;5.342;2023-01-10T00:38:27;101005.00;;;12.20
19282;BMP180;9774;52.034;5.342;2023-01-10T00:40:55;100999.00;;;12.20
19282;BMP180;9774;52.034;5.342;2023-01-10T00:43:23;101006.00;;;12.20
19282;BMP180;9774;52.034;5.342;2023-01-10T00:46:10;101010.00;;;12.20
19282;BMP180;9774;52.034;5.342;2023-01-10T00:48:38;101013.00;;;12.20
19282;BMP180;9774;52.034;5.342;2023-01-10T00:51:06;101013.00;;;12.20
19282;BMP180;9774;52.034;5.342;2023-01-10T00:53:34;101018.00;;;12.20
19282;BMP180;9774;52.034;5.342;2023-01-10T00:56:01;101013.00;;;12.20
19282;BMP180;9774;52.034;5.342;2023-01-10T00:58:29;101022.00;;;12.20
19282;BMP180;9774;52.034;5.342;2023-01-10T01:00:58;101026.00;;;12.20
19282;BMP180;9774;52.034;5.342;2023-01-10T01:03:27;101021.00;;;12.20
19282;BMP180;9774;52.034;5.342;2023-01-10T01:05:54;101020.00;;;12.20
19282;BMP180;9774;52.034;5.342;2023-01-10T01:08:22;101028.00;;;12.30
19282;BMP180;9774;52.034;5.342;2023-01-10T01:10:50;101031.00;;;12.30
19282;BMP180;9774;52.034;5.342;2023-01-10T01:13:19;101041.00;;;12.30
19282;BMP180;9774;52.034;5.342;2023-01-10T01:15:48;101034.00;;;12.30
19282;BMP180;9774;52.034;5.342;2023-01-10T01:18:17;101036.00;;;12.30
19282;BMP180;9774;52.034;5.342;2023-01-10T01:20:51;101041.00;;;12.20
19282;BMP180;9774;52.034;5.342;2023-01-10T01:23:18;101036.00;;;12.30
19282;BMP180;9774;52.034;5.342;2023-01-10T01:25:49;101048.00;;;12.20
19282;BMP180;9774;52.034;5.342;2023-01-10T01:28:17;101048.00;;;12.30
19282;BMP180;9774;52.034;5.342;2023-01-10T01:30:45;101046.00;;;12.30
19282;BMP180;9774;52.034;5.342;2023-01-10T01:33:14;101062.00;;;12.30
19282;BMP180;9774;52.034;5.342;2023-01-10T01:35:42;101062.00;;;12.30
19282;BMP180;9774;52.034;5.342;2023-01-10T01:38:11;101065.00;;;12.30
19282;BMP180;9774;52.034;5.342;2023-01-10T01:40:39;101068.00;;;12.30
19282;BMP180;9774;52.034;5.342;2023-01-10T01:43:22;101072.00;;;12.20
19282;BMP180;9774;52.034;5.342;2023-01-10T01:45:50;101079.00;;;12.40
19282;BMP180;9774;52.034;5.342;2023-01-10T01:48:29;101076.00;;;12.30
19282;BMP180;9774;52.034;5.342;2023-01-10T01:51:02;101082.00;;;12.40
19282;BMP180;9774;52.034;5.342;2023-01-10T01:53:39;101086.00;;;12.40
19282;BMP180;9774;52.034;5.342;2023-01-10T01:56:11;101083.00;;;12.40
19282;BMP180;9774;52.034;5.342;2023-01-10T01:58:45;101087.00;;;12.40
19282;BMP180;9774;52.034;5.342;2023-01-10T02:01:15;101080.00;;;12.40
19282;BMP180;9774;52.034;5.342;2023-01-10T02:03:46;101091.00;;;12.40
19282;BMP180;9774;52.034;5.342;2023-01-10T02:06:16;101092.00;;;12.50
19282;BMP180;9774;52.034;5.342;2023-01-10T02:08:52;101094.00;;;12.40
19282;BMP180;9774;52.034;5.342;2023-01-10T02:11:21;101107.00;;;12.50
19282;BMP180;9774;52.034;5.342;2023-01-10T02:13:49;101103.00;;;12.50
19282;BMP180;9774;52.034;5.342;2023-01-10T02:16:18;101100.00;;;12.50
19282;BMP180;9774;52.034;5.342;2023-01-10T02:18:45;101109.00;;;12.50
19282;BMP180;9774;52.034;5.342;2023-01-10T02:21:22;101102.00;;;12.50
19282;BMP180;9774;52.034;5.342;2023-01-10T02:27:12;101110.00;;;12.50
19282;BMP180;9774;52.034;5.342;2023-01-10T02:30:03;101117.00;;;12.50
19282;BMP180;9774;52.034;5.342;2023-01-10T02:32:40;101114.00;;;12.60
19282;BMP180;9774;52.034;5.342;2023-01-10T02:35:24;101120.00;;;12.60
19282;BMP180;9774;52.034;5.342;2023-01-10T02:38:02;101119.00;;;12.60
19282;BMP180;9774;52.034;5.342;2023-01-10T02:40:42;101116.00;;;12.60
19282;BMP180;9774;52.034;5.342;2023-01-10T02:43:15;101125.00;;;12.70
19282;BMP180;9774;52.034;5.342;2023-01-10T02:45:46;101111.00;;;12.70
19282;BMP180;9774;52.034;5.342;2023-01-10T02:48:17;101108.00;;;12.70
19282;BMP180;9774;52.034;5.342;2023-01-10T02:50:55;101117.00;;;12.70
19282;BMP180;9774;52.034;5.342;2023-01-10T02:53:28;101120.00;;;12.80
19282;BMP180;9774;52.034;5.342;2023-01-10T03:01:58;101120.00;;;12.80
19282;BMP180;9774;52.034;5.342;2023-01-10T03:04:34;101123.00;;;12.80
19282;BMP180;9774;52.034;5.342;2023-01-10T03:07:12;101133.00;;;12.80
19282;BMP180;9774;52.034;5.342;2023-01-10T03:09:50;101137.00;;;12.80
19282;BMP180;9774;52.034;5.342;2023-01-10T03:12:22;101130.00;;;12.80
19282;BMP180;9774;52.034;5.342;2023-01-10T03:14:52;101143.00;;;12.80
19282;BMP180;9774;52.034;5.342;2023-01-10T03:17:22;101155.00;;;12.90
19282;BMP180;9774;52.034;5.342;2023-01-10T03:19:55;101160.00;;;12.80
19282;BMP180;9774;52.034;5.342;2023-01-10T03:22:25;101161.00;;;12.80
19282;BMP180;9774;52.034;5.342;2023-01-10T03:24:54;101167.00;;;12.80
19282;BMP180;9774;52.034;5.342;2023-01-10T03:27:26;101166.00;;;12.80
19282;BMP180;9774;52.034;5.342;2023-01-10T03:30:00;101165.00;;;12.80
19282;BMP180;9774;52.034;5.342;2023-01-10T03:32:31;101169.00;;;12.80
19282;BMP180;9774;52.034;5.342;2023-01-10T03:35:02;101174.00;;;12.80
19282;BMP180;9774;52.034;5.342;2023-01-10T03:37:35;101184.00;;;12.80
19282;BMP180;9774;52.034;5.342;2023-01-10T03:40:09;101183.00;;;12.80
19282;BMP180;9774;52.034;5.342;2023-01-10T03:42:47;101182.00;;;12.70
19282;BMP180;9774;52.034;5.342;2023-01-10T03:45:41;101184.00;;;12.70
19282;BMP180;9774;52.034;5.342;2023-01-10T03:48:11;101190.00;;;12.70
19282;BMP180;9774;52.034;5.342;2023-01-10T03:50:42;101191.00;;;12.70
19282;BMP180;9774;52.034;5.342;2023-01-10T03:53:11;101189.00;;;12.70
19282;BMP180;9774;52.034;5.342;2023-01-10T03:55:41;101192.00;;;12.70
19282;BMP180;9774;52.034;5.342;2023-01-10T03:58:10;101192.00;;;12.70
19282;BMP180;9774;52.034;5.342;2023-01-10T04:00:38;101199.00;;;12.70
19282;BMP180;9774;52.034;5.342;2023-01-10T04:03:07;101213.00;;;12.70
19282;BMP180;9774;52.034;5.342;2023-01-10T04:05:35;101201.00;;;12.70
19282;BMP180;9774;52.034;5.342;2023-01-10T04:08:04;101205.00;;;12.70
19282;BMP180;9774;52.034;5.342;2023-01-10T04:10:32;101206.00;;;12.70
19282;BMP180;9774;52.034;5.342;2023-01-10T04:13:00;101216.00;;;12.70
19282;BMP180;9774;52.034;5.342;2023-01-10T04:15:28;101213.00;;;12.70
19282;BMP180;9774;52.034;5.342;2023-01-10T04:17:56;101210.00;;;12.70
19282;BMP180;9774;52.034;5.342;2023-01-10T04:20:24;101213.00;;;12.60
19282;BMP180;9774;52.034;5.342;2023-01-10T04:22:52;101222.00;;;12.60
19282;BMP180;9774;52.034;5.342;2023-01-10T04:25:22;101229.00;;;12.60
19282;BMP180;9774;52.034;5.342;2023-01-10T04:27:50;101230.00;;;12.60
19282;BMP180;9774;52.034;5.342;2023-01-10T04:30:18;101233.00;;;12.60
19282;BMP180;9774;52.034;5.342;2023-01-10T04:32:47;101250.00;;;12.60
19282;BMP180;9774;52.034;5.342;2023-01-10T04:35:14;101250.00;;;12.60
19282;BMP180;9774;52.034;5.342;2023-01-10T04:37:42;101253.00;;;12.60
19282;BMP180;9774;52.034;5.342;2023-01-10T04:40:10;101261.00;;;12.60
19282;BMP180;9774;52.034;5.342;2023-01-10T04:42:39;101257.00;;;12.60
19282;BMP180;9774;52.034;5.342;2023-01-10T04:45:07;101260.00;;;12.60
19282;BMP180;9774;52.034;5.342;2023-01-10T04:47:36;101259.00;;;12.60
19282;BMP180;9774;52.034;5.342;2023-01-10T04:50:04;101265.00;;;12.60
19282;BMP180;9774;52.034;5.342;2023-01-10T04:52:32;101264.00;;;12.60
19282;BMP180;9774;52.034;5.342;2023-01-10T04:54:59;101264.00;;;12.70
19282;BMP180;9774;52.034;5.342;2023-01-10T04:57:26;101266.00;;;12.70
19282;BMP180;9774;52.034;5.342;2023-01-10T04:59:55;101263.00;;;12.70
19282;BMP180;9774;52.034;5.342;2023-01-10T05:02:22;101274.00;;;12.70
19282;BMP180;9774;52.034;5.342;2023-01-10T05:04:49;101271.00;;;12.70
19282;BMP180;9774;52.034;5.342;2023-01-10T05:07:16;101264.00;;;12.60
19282;BMP180;9774;52.034;5.342;2023-01-10T05:09:43;101264.00;;;12.60
19282;BMP180;9774;52.034;5.342;2023-01-10T05:12:11;101264.00;;;12.60
19282;BMP180;9774;52.034;5.342;2023-01-10T05:14:38;101273.00;;;12.60
19282;BMP180;9774;52.034;5.342;2023-01-10T05:17:06;101275.00;;;12.50
19282;BMP180;9774;52.034;5.342;2023-01-10T05:19:34;101282.00;;;12.50
19282;BMP180;9774;52.034;5.342;2023-01-10T05:22:01;101295.00;;;12.50
19282;BMP180;9774;52.034;5.342;2023-01-10T05:24:28;101299.00;;;12.50
19282;BMP180;9774;52.034;5.342;2023-01-10T05:26:55;101303.00;;;12.50
19282;BMP180;9774;52.034;5.342;2023-01-10T05:29:23;101309.00;;;12.50
19282;BMP180;9774;52.034;5.342;2023-01-10T05:31:50;101312.00;;;12.40
19282;BMP180;9774;52.034;5.342;2023-01-10T05:34:19;101314.00;;;12.50
19282;BMP180;9774;52.034;5.342;2023-01-10T05:36:46;101312.00;;;12.50
19282;BMP180;9774;52.034;5.342;2023-01-10T05:39:13;101317.00;;;12.50
19282;BMP180;9774;52.034;5.342;2023-01-10T05:41:41;101305.00;;;12.50
19282;BMP180;9774;52.034;5.342;2023-01-10T05:44:08;101317.00;;;12.50
19282;BMP180;9774;52.034;5.342;2023-01-10T05:46:35;101320.00;;;12.60
19282;BMP180;9774;52.034;5.342;2023-01-10T05:49:03;101323.00;;;12.60
19282;BMP180;9774;52.034;5.342;2023-01-10T05:51:31;101330.00;;;12.60
19282;BMP180;9774;52.034;5.342;2023-01-10T05:54:00;101335.00;;;12.60
19282;BMP180;9774;52.034;5.342;2023-01-10T05:56:27;101333.00;;;12.60
19282;BMP180;9774;52.034;5.342;2023-01-10T05:58:55;101340.00;;;12.60
19282;BMP180;9774;52.034;5.342;2023-01-10T06:01:22;101335.00;;;12.60
19282;BMP180;9774;52.034;5.342;2023-01-10T06:03:49;101333.00;;;12.60
19282;BMP180;9774;52.034;5.342;2023-01-10T06:06:16;101337.00;;;12.60
19282;BMP180;9774;52.034;5.342;2023-01-10T06:08:45;101344.00;;;12.70
19282;BMP180;9774;52.034;5.342;2023-01-10T06:11:12;101351.00;;;12.70
19282;BMP180;9774;52.034;5.342;2023-01-10T06:13:39;101346.00;;;12.70
19282;BMP180;9774;52.034;5.342;2023-01-10T06:16:07;101358.00;;;12.70
19282;BMP180;9774;52.034;5.342;2023-01-10T06:18:34;101356.00;;;12.70
19282;BMP180;9774;52.034;5.342;2023-01-10T06:21:01;101356.00;;;12.70
19282;BMP180;9774;52.034;5.342;2023-01-10T06:23:28;101360.00;;;12.70
19282;BMP180;9774;52.034;5.342;2023-01-10T06:25:57;101362.00;;;12.70
19282;BMP180;9774;52.034;5.342;2023-01-10T06:28:24;101359.00;;;12.80
19282;BMP180;9774;52.034;5.342;2023-01-10T06:30:52;101365.00;;;12.80
19282;BMP180;9774;52.034;5.342;2023-01-10T06:33:19;101365.00;;;12.80
19282;BMP180;9774;52.034;5.342;2023-01-10T06:35:46;101366.00;;;12.80
19282;BMP180;9774;52.034;5.342;2023-01-10T06:38:13;101379.00;;;12.80
19282;BMP180;9774;52.034;5.342;2023-01-10T06:40:41;101379.00;;;12.80
19282;BMP180;9774;52.034;5.342;2023-01-10T06:43:09;101387.00;;;12.80
19282;BMP180;9774;52.034;5.342;2023-01-10T06:45:37;101388.00;;;12.80
19282;BMP180;9774;52.034;5.342;2023-01-10T06:48:04;101387.00;;;12.80
19282;BMP180;9774;52.034;5.342;2023-01-10T06:50:32;101392.00;;;12.80
19282;BMP180;9774;52.034;5.342;2023-01-10T06:53:00;101395.00;;;12.80
19282;BMP180;9774;52.034;5.342;2023-01-10T06:55:28;101387.00;;;12.80
19282;BMP180;9774;52.034;5.342;2023-01-10T06:57:56;101396.00;;;12.80
19282;BMP180;9774;52.034;5.342;2023-01-10T07:00:26;101400.00;;;12.70
19282;BMP180;9774;52.034;5.342;2023-01-10T07:02:54;101409.00;;;12.70
19282;BMP180;9774;52.034;5.342;2023-01-10T07:05:22;101407.00;;;12.70
19282;BMP180;9774;52.034;5.342;2023-01-10T07:07:49;101406.00;;;12.70
19282;BMP180;9774;52.034;5.342;2023-01-10T07:10:17;101394.00;;;12.70
19282;BMP180;9774;52.034;5.342;2023-01-10T07:12:44;101408.00;;;12.70
19282;BMP180;9774;52.034;5.342;2023-01-10T07:15:11;101414.00;;;12.60
19282;BMP180;9774;52.034;5.342;2023-01-10T07:17:40;101413.00;;;12.60
19282;BMP180;9774;52.034;5.342;2023-01-10T07:20:08;101430.00;;;12.60
19282;BMP180;9774;52.034;5.342;2023-01-10T07:22:36;101437.00;;;12.60
19282;BMP180;9774;52.034;5.342;2023-01-10T07:25:04;101446.00;;;12.50
19282;BMP180;9774;52.034;5.342;2023-01-10T07:27:31;101449.00;;;12.50
19282;BMP180;9774;52.034;5.342;2023-01-10T07:29:58;101458.00;;;12.50
19282;BMP180;9774;52.034;5.342;2023-01-10T07:32:26;101455.00;;;12.50
19282;BMP180;9774;52.034;5.342;2023-01-10T07:34:55;101464.00;;;12.50
19282;BMP180;9774;52.034;5.342;2023-01-10T07:37:22;101465.00;;;12.50
19282;BMP180;9774;52.034;5.342;2023-01-10T07:39:49;101477.00;;;12.50
19282;BMP180;9774;52.034;5.342;2023-01-10T07:42:17;101476.00;;;12.50
19282;BMP180;9774;52.034;5.342;2023-01-10T07:44:44;101486.00;;;12.50
19282;BMP180;9774;52.034;5.342;2023-01-10T07:47:11;101472.00;;;12.50
19282;BMP180;9774;52.034;5.342;2023-01-10T07:49:39;101469.00;;;12.40
19282;BMP180;9774;52.034;5.342;2023-01-10T07:52:07;101476.00;;;12.40
19282;BMP180;9774;52.034;5.342;2023-01-10T07:54:35;101477.00;;;12.40
19282;BMP180;9774;52.034;5.342;2023-01-10T07:57:02;101485.00;;;12.40
19282;BMP180;9774;52.034;5.342;2023-01-10T07:59:29;101480.00;;;12.40
19282;BMP180;9774;52.034;5.342;2023-01-10T08:01:56;101484.00;;;12.40
19282;BMP180;9774;52.034;5.342;2023-01-10T08:04:24;101481.00;;;12.40
19282;BMP180;9774;52.034;5.342;2023-01-10T08:06:53;101475.00;;;12.30
19282;BMP180;9774;52.034;5.342;2023-01-10T08:09:22;101493.00;;;12.30
19282;BMP180;9774;52.034;5.342;2023-01-10T08:11:50;101484.00;;;12.30
19282;BMP180;9774;52.034;5.342;2023-01-10T08:14:17;101492.00;;;12.30
19282;BMP180;9774;52.034;5.342;2023-01-10T08:16:44;101508.00;;;12.30
19282;BMP180;9774;52.034;5.342;2023-01-10T08:19:12;101495.00;;;12.30
19282;BMP180;9774;52.034;5.342;2023-01-10T08:21:41;101502.00;;;12.30
19282;BMP180;9774;52.034;5.342;2023-01-10T08:24:09;101494.00;;;12.30
19282;BMP180;9774;52.034;5.342;2023-01-10T08:26:37;101500.00;;;12.20
19282;BMP180;9774;52.034;5.342;2023-01-10T08:29:05;101494.00;;;12.30
19282;BMP180;9774;52.034;5.342;2023-01-10T08:31:32;101491.00;;;12.30
19282;BMP180;9774;52.034;5.342;2023-01-10T08:33:59;101502.00;;;12.30
19282;BMP180;9774;52.034;5.342;2023-01-10T08:36:27;101502.00;;;12.30
19282;BMP180;9774;52.034;5.342;2023-01-10T08:38:55;101494.00;;;12.40
19282;BMP180;9774;52.034;5.342;2023-01-10T08:41:22;101500.00;;;12.40
19282;BMP180;9774;52.034;5.342;2023-01-10T08:43:51;101494.00;;;12.40
19282;BMP180;9774;52.034;5.342;2023-01-10T08:46:18;101494.00;;;12.40
19282;BMP180;9774;52.034;5.342;2023-01-10T08:48:46;101492.00;;;12.40
19282;BMP180;9774;52.034;5.342;2023-01-10T08:51:15;101489.00;;;12.40
19282;BMP180;9774;52.034;5.342;2023-01-10T08:53:42;101498.00;;;12.40
19282;BMP180;9774;52.034;5.342;2023-01-10T08:56:10;101479.00;;;12.40
19282;BMP180;9774;52.034;5.342;2023-01-10T08:58:37;101479.00;;;12.40
19282;BMP180;9774;52.034;5.342;2023-01-10T09:01:07;101487.00;;;12.50
19282;BMP180;9774;52.034;5.342;2023-01-10T09:03:38;101476.00;;;12.50
19282;BMP180;9774;52.034;5.342;2023-01-10T09:06:06;101479.00;;;12.50
19282;BMP180;9774;52.034;5.342;2023-01-10T09:08:34;101468.00;;;12.50
19282;BMP180;9774;52.034;5.342;2023-01-10T09:11:02;101473.00;;;12.50
19282;BMP180;9774;52.034;5.342;2023-01-10T09:13:30;101491.00;;;12.50
19282;BMP180;9774;52.034;5.342;2023-01-10T09:15:58;101477.00;;;12.40
19282;BMP180;9774;52.034;5.342;2023-01-10T09:18:27;101478.00;;;12.50
19282;BMP180;9774;52.034;5.342;2023-01-10T09:20:54;101479.00;;;12.50
19282;BMP180;9774;52.034;5.342;2023-01-10T09:23:22;101481.00;;;12.50
19282;BMP180;9774;52.034;5.342;2023-01-10T09:25:51;101488.00;;;12.50
19282;BMP180;9774;52.034;5.342;2023-01-10T09:28:19;101478.00;;;12.50
19282;BMP180;9774;52.034;5.342;2023-01-10T09:30:47;101479.00;;;12.50
19282;BMP180;9774;52.034;5.342;2023-01-10T09:33:15;101477.00;;;12.50
19282;BMP180;9774;52.034;5.342;2023-01-10T09:35:44;101469.00;;;12.50
19282;BMP180;9774;52.034;5.342;2023-01-10T09:38:14;101482.00;;;12.50
19282;BMP180;9774;52.034;5.342;2023-01-10T09:40:56;101475.00;;;12.40
19282;BMP180;9774;52.034;5.342;2023-01-10T09:43:33;101487.00;;;12.50
19282;BMP180;9774;52.034;5.342;2023-01-10T09:46:05;101476.00;;;12.50
19282;BMP180;9774;52.034;5.342;2023-01-10T09:48:39;101483.00;;;12.50
19282;BMP180;9774;52.034;5.342;2023-01-10T09:51:23;101492.00;;;12.40
19282;BMP180;9774;52.034;5.342;2023-01-10T09:53:56;101480.00;;;12.50
19282;BMP180;9774;52.034;5.342;2023-01-10T09:56:25;101477.00;;;12.60
19282;BMP180;9774;52.034;5.342;2023-01-10T09:58:54;101472.00;;;12.50
19282;BMP180;9774;52.034;5.342;2023-01-10T10:01:25;101480.00;;;12.50
19282;BMP180;9774;52.034;5.342;2023-01-10T10:03:59;101480.00;;;12.50
19282;BMP180;9774;52.034;5.342;2023-01-10T10:06:29;101495.00;;;12.60
19282;BMP180;9774;52.034;5.342;2023-01-10T10:08:59;101493.00;;;12.60
19282;BMP180;9774;52.034;5.342;2023-01-10T10:11:39;101484.00;;;12.50
19282;BMP180;9774;52.034;5.342;2023-01-10T10:14:20;101477.00;;;12.60
19282;BMP180;9774;52.034;5.342;2023-01-10T10:17:14;101476.00;;;12.50
19282;BMP180;9774;52.034;5.342;2023-01-10T10:19:55;101475.00;;;12.60
19282;BMP180;9774;52.034;5.342;2023-01-10T10:22:35;101472.00;;;12.60
19282;BMP180;9774;52.034;5.342;2023-01-10T10:25:15;101476.00;;;12.60
19282;BMP180;9774;52.034;5.342;2023-01-10T10:27:58;101468.00;;;12.60
19282;BMP180;9774;52.034;5.342;2023-01-10T10:30:36;101481.00;;;12.70
19282;BMP180;9774;52.034;5.342;2023-01-10T10:33:23;101459.00;;;12.60
19282;BMP180;9774;52.034;5.342;2023-01-10T10:36:00;101459.00;;;12.70
19282;BMP180;9774;52.034;5.342;2023-01-10T10:38:34;101458.00;;;12.70
19282;BMP180;9774;52.034;5.342;2023-01-10T10:41:03;101456.00;;;12.70
19282;BMP180;9774;52.034;5.342;2023-01-10T10:43:37;101458.00;;;12.70
19282;BMP180;9774;52.034;5.342;2023-01-10T10:46:08;101455.00;;;12.70
19282;BMP180;9774;52.034;5.342;2023-01-10T10:48:39;101437.00;;;12.70
19282;BMP180;9774;52.034;5.342;2023-01-10T10:51:11;101436.00;;;12.70
19282;BMP180;9774;52.034;5.342;2023-01-10T10:53:41;101435.00;;;12.70
19282;BMP180;9774;52.034;5.342;2023-01-10T10:56:13;101425.00;;;12.70
19282;BMP180;9774;52.034;5.342;2023-01-10T10:58:43;101424.00;;;12.80
19282;BMP180;9774;52.034;5.342;2023-01-10T11:01:11;101429.00;;;12.80
19282;BMP180;9774;52.034;5.342;2023-01-10T11:03:43;101421.00;;;12.80
19282;BMP180;9774;52.034;5.342;2023-01-10T11:06:13;101409.00;;;12.80
19282;BMP180;9774;52.034;5.342;2023-01-10T11:08:46;101424.00;;;12.80
19282;BMP180;9774;52.034;5.342;2023-01-10T11:11:18;101418.00;;;12.80
19282;BMP180;9774;52.034;5.342;2023-01-10T11:13:48;101409.00;;;12.90
19282;BMP180;9774;52.034;5.342;2023-01-10T11:16:25;101401.00;;;12.80
19282;BMP180;9774;52.034;5.342;2023-01-10T11:19:19;101399.00;;;12.80
19282;BMP180;9774;52.034;5.342;2023-01-10T11:21:49;101398.00;;;12.90
19282;BMP180;9774;52.034;5.342;2023-01-10T11:24:25;101401.00;;;12.90
19282;BMP180;9774;52.034;5.342;2023-01-10T11:26:54;101397.00;;;12.90
19282;BMP180;9774;52.034;5.342;2023-01-10T11:29:25;101391.00;;;12.90
19282;BMP180;9774;52.034;5.342;2023-01-10T11:31:55;101387.00;;;12.90
19282;BMP180;9774;52.034;5.342;2023-01-10T11:34:24;101395.00;;;12.90
19282;BMP180;9774;52.034;5.342;2023-01-10T11:36:53;101377.00;;;13.00
19282;BMP180;9774;52.034;5.342;2023-01-10T11:39:22;101372.00;;;13.00
19282;BMP180;9774;52.034;5.342;2023-01-10T11:41:49;101372.00;;;13.00
19282;BMP180;9774;52.034;5.342;2023-01-10T11:44:22;101360.00;;;13.00
19282;BMP180;9774;52.034;5.342;2023-01-10T11:46:54;101371.00;;;13.10
19282;BMP180;9774;52.034;5.342;2023-01-10T11:49:28;101376.00;;;13.10
19282;BMP180;9774;52.034;5.342;2023-01-10T11:51:59;101380.00;;;13.10
19282;BMP180;9774;52.034;5.342;2023-01-10T11:54:29;101374.00;;;13.20
19282;BMP180;9774;52.034;5.342;2023-01-10T11:57:00;101381.00;;;13.20
19282;BMP180;9774;52.034;5.342;2023-01-10T11:59:29;101373.00;;;13.20
19282;BMP180;9774;52.034;5.342;2023-01-10T12:01:59;101367.00;;;13.20
19282;BMP180;9774;52.034;5.342;2023-01-10T12:04:30;101359.00;;;13.20
19282;BMP180;9774;52.034;5.342;2023-01-10T12:07:01;101346.00;;;13.20
19282;BMP180;9774;52.034;5.342;2023-01-10T12:09:41;101343.00;;;13.20
19282;BMP180;9774;52.034;5.342;2023-01-10T12:12:21;101337.00;;;13.20
19282;BMP180;9774;52.034;5.342;2023-01-10T12:14:50;101331.00;;;13.30
19282;BMP180;9774;52.034;5.342;2023-01-10T12:17:22;101326.00;;;13.20
19282;BMP180;9774;52.034;5.342;2023-01-10T12:19:51;101315.00;;;13.20
19282;BMP180;9774;52.034;5.342;2023-01-10T12:22:24;101312.00;;;13.20
19282;BMP180;9774;52.034;5.342;2023-01-10T12:24:54;101310.00;;;13.20
19282;BMP180;9774;52.034;5.342;2023-01-10T12:27:23;101302.00;;;13.30
19282;BMP180;9774;52.034;5.342;2023-01-10T12:30:00;101300.00;;;13.20
19282;BMP180;9774;52.034;5.342;2023-01-10T12:32:35;101296.00;;;13.20
19282;BMP180;9774;52.034;5.342;2023-01-10T12:35:06;101290.00;;;13.30
19282;BMP180;9774;52.034;5.342;2023-01-10T12:37:42;101283.00;;;13.30
19282;BMP180;9774;52.034;5.342;2023-01-10T12:40:18;101279.00;;;13.30
19282;BMP180;9774;52.034;5.342;2023-01-10T12:42:51;101284.00;;;13.30
19282;BMP180;9774;52.034;5.342;2023-01-10T12:45:41;101277.00;;;13.30
19282;BMP180;9774;52.034;5.342;2023-01-10T12:48:16;101286.00;;;13.30
19282;BMP180;9774;52.034;5.342;2023-01-10T12:50:48;101271.00;;;13.30
19282;BMP180;9774;52.034;5.342;2023-01-10T12:53:28;101270.00;;;13.30
19282;BMP180;9774;52.034;5.342;2023-01-10T12:55:59;101268.00;;;13.40
19282;BMP180;9774;52.034;5.342;2023-01-10T12:58:34;101265.00;;;13.30
19282;BMP180;9774;52.034;5.342;2023-01-10T13:01:05;101257.00;;;13.40
19282;BMP180;9774;52.034;5.342;2023-01-10T13:03:34;101254.00;;;13.40
19282;BMP180;9774;52.034;5.342;2023-01-10T13:06:04;101249.00;;;13.40
19282;BMP180;9774;52.034;5.342;2023-01-10T13:08:33;101236.00;;;13.40
19282;BMP180;9774;52.034;5.342;2023-01-10T13:11:04;101234.00;;;13.40
19282;BMP180;9774;52.034;5.342;2023-01-10T13:13:34;101235.00;;;13.40
19282;BMP180;9774;52.034;5.342;2023-01-10T13:16:18;101230.00;;;13.30
19282;BMP180;9774;52.034;5.342;2023-01-10T13:19:02;101221.00;;;13.30
19282;BMP180;9774;52.034;5.342;2023-01-10T13:21:31;101219.00;;;13.40
19282;BMP180;9774;52.034;5.342;2023-01-10T13:24:00;101210.00;;;13.40
19282;BMP180;9774;52.034;5.342;2023-01-10T13:26:49;101205.00;;;13.30
19282;BMP180;9774;52.034;5.342;2023-01-10T13:29:21;101201.00;;;13.40
19282;BMP180;9774;52.034;5.342;2023-01-10T13:31:49;101194.00;;;13.40
19282;BMP180;9774;52.034;5.342;2023-01-10T13:34:24;101191.00;;;13.40
19282;BMP180;9774;52.034;5.342;2023-01-10T13:36:55;101199.00;;;13.40
19282;BMP180;9774;52.034;5.342;2023-01-10T13:39:29;101190.00;;;13.40
19282;BMP180;9774;52.034;5.342;2023-01-10T13:42:30;101185.00;;;13.30
19282;BMP180;9774;52.034;5.342;2023-01-10T13:45:23;101195.00;;;13.40
19282;BMP180;9774;52.034;5.342;2023-01-10T13:47:59;101184.00;;;13.40
19282;BMP180;9774;52.034;5.342;2023-01-10T13:50:50;101183.00;;;13.30
19282;BMP180;9774;52.034;5.342;2023-01-10T13:53:43;101176.00;;;13.30
19282;BMP180;9774;52.034;5.342;2023-01-10T13:56:35;101179.00;;;13.30
19282;BMP180;9774;52.034;5.342;2023-01-10T13:59:10;101183.00;;;13.40
19282;BMP180;9774;52.034;5.342;2023-01-10T14:01:58;101165.00;;;13.50
19282;BMP180;9774;52.034;5.342;2023-01-10T14:04:49;101172.00;;;13.40
19282;BMP180;9774;52.034;5.342;2023-01-10T14:07:24;101161.00;;;13.50
19282;BMP180;9774;52.034;5.342;2023-01-10T14:09:58;101163.00;;;13.50
19282;BMP180;9774;52.034;5.342;2023-01-10T14:12:30;101158.00;;;13.50
19282;BMP180;9774;52.034;5.342;2023-01-10T14:15:04;101151.00;;;13.50
19282;BMP180;9774;52.034;5.342;2023-01-10T14:17:33;101150.00;;;13.50
19282;BMP180;9774;52.034;5.342;2023-01-10T14:20:05;101149.00;;;13.50
19282;BMP180;9774;52.034;5.342;2023-01-10T14:22:35;101132.00;;;13.50
19282;BMP180;9774;52.034;5.342;2023-01-10T14:25:05;101124.00;;;13.50
19282;BMP180;9774;52.034;5.342;2023-01-10T14:27:41;101114.00;;;13.40
19282;BMP180;9774;52.034;5.342;2023-01-10T14:30:16;101106.00;;;13.40
19282;BMP180;9774;52.034;5.342;2023-01-10T14:32:49;101110.00;;;13.40
19282;BMP180;9774;52.034;5.342;2023-01-10T14:35:18;101102.00;;;13.40
19282;BMP180;9774;52.034;5.342;2023-01-10T14:37:50;101099.00;;;13.40
19282;BMP180;9774;52.034;5.342;2023-01-10T14:40:25;101084.00;;;13.40